createdAt,value
2022-09-25T00:01:10.852Z,96076.91
2022-09-25T00:03:38.854Z,96072.03
2022-09-25T00:06:08.950Z,96073.28
2022-09-25T00:08:37.449Z,96075.84
2022-09-25T00:11:07.331Z,96067.16
2022-09-25T00:13:37.010Z,96074.22
2022-09-25T00:16:05.329Z,96071.03
2022-09-25T00:18:50.831Z,96065.19
2022-09-25T00:21:19.366Z,96064.69
2022-09-25T00:23:47.916Z,96064.31
2022-09-25T00:26:17.422Z,96063.66
2022-09-25T00:28:46.794Z,96060.72
2022-09-25T00:31:24.430Z,96048.69
2022-09-25T00:33:52.482Z,96068.16
2022-09-25T00:36:21.196Z,96069.47
2022-09-25T00:38:48.982Z,96068.47
2022-09-25T00:41:18.592Z,96068.34
2022-09-25T00:43:50.661Z,96065.34
2022-09-25T00:46:21.942Z,96071.91
2022-09-25T00:48:52.520Z,96066.88
2022-09-25T00:51:26.849Z,96071.22
2022-09-25T00:53:54.580Z,96077.66
2022-09-25T00:56:22.245Z,96070.34
2022-09-25T00:58:52.124Z,96065.88
2022-09-25T01:01:19.825Z,96036.75
2022-09-25T01:03:48.154Z,96042.09
2022-09-25T01:06:16.494Z,96047.25
2022-09-25T01:08:45.720Z,96053.72
2022-09-25T01:11:13.420Z,96051.03
2022-09-25T01:13:41.270Z,96047.19
2022-09-25T01:16:14.793Z,96049.38
2022-09-25T01:19:03.231Z,96034.41
2022-09-25T01:21:38.493Z,96037.66
2022-09-25T01:24:36.463Z,96034.97
2022-09-25T01:27:38.958Z,96027.00
2022-09-25T01:30:11.440Z,96025.81
2022-09-25T01:32:51.561Z,96026.81
2022-09-25T01:35:27.004Z,96025.81
2022-09-25T01:37:59.909Z,96033.38
2022-09-25T01:40:33.701Z,96049.94
2022-09-25T01:43:09.046Z,96038.19
2022-09-25T01:45:44.920Z,96030.16
2022-09-25T01:48:14.300Z,96034.97
2022-09-25T01:50:46.870Z,96023.06
2022-09-25T01:53:19.719Z,96032.97
2022-09-25T01:55:51.783Z,96028.44
2022-09-25T01:58:25.857Z,96023.69
2022-09-25T02:01:00.338Z,96023.38
2022-09-25T02:03:32.772Z,96027.25
2022-09-25T02:06:03.443Z,96018.22
2022-09-25T02:08:36.967Z,96026.25
2022-09-25T02:11:06.697Z,96024.31
2022-09-25T02:13:39.352Z,96023.91
2022-09-25T02:16:12.585Z,96024.50
2022-09-25T02:18:58.449Z,96024.19
2022-09-25T02:21:34.381Z,96020.94
2022-09-25T02:24:10.454Z,96015.59
2022-09-25T02:26:38.609Z,96024.69
2022-09-25T02:29:06.741Z,96027.00
2022-09-25T02:31:40.411Z,96027.06
2022-09-25T02:34:13.787Z,96020.16
2022-09-25T02:36:44.846Z,96025.00
2022-09-25T02:39:17.070Z,96007.00
2022-09-25T02:42:03.152Z,96010.28
2022-09-25T02:44:43.490Z,96012.47
2022-09-25T02:47:23.217Z,96017.25
2022-09-25T02:49:57.003Z,96013.53
2022-09-25T02:52:34.978Z,96021.53
2022-09-25T02:55:08.020Z,96010.38
2022-09-25T02:57:44.496Z,96020.66
2022-09-25T03:00:14.023Z,96025.22
2022-09-25T03:02:51.434Z,96019.84
2022-09-25T03:05:21.473Z,96014.06
2022-09-25T03:08:06.834Z,96018.13
2022-09-25T03:10:37.862Z,96011.81
2022-09-25T03:13:16.741Z,96012.78
2022-09-25T03:15:48.476Z,96014.09
2022-09-25T03:18:18.030Z,96009.69
2022-09-25T03:20:46.004Z,96008.38
2022-09-25T03:23:13.986Z,96011.13
2022-09-25T03:25:45.969Z,96013.19
2022-09-25T03:28:16.916Z,96003.19
2022-09-25T03:30:45.691Z,96002.13
2022-09-25T03:33:14.401Z,95998.38
2022-09-25T03:35:43.467Z,96007.44
2022-09-25T03:38:12.455Z,96003.44
2022-09-25T03:40:41.316Z,96005.88
2022-09-25T03:45:35.751Z,95995.63
2022-09-25T03:48:03.450Z,95999.97
2022-09-25T03:50:31.142Z,95997.13
2022-09-25T03:53:00.200Z,95993.44
2022-09-25T03:55:27.887Z,95987.91
2022-09-25T03:57:55.550Z,95996.19
2022-09-25T04:00:24.187Z,95993.56
2022-09-25T04:02:52.061Z,95994.03
2022-09-25T04:05:20.032Z,95994.69
2022-09-25T04:07:48.347Z,95995.75
2022-09-25T04:10:17.594Z,95997.72
2022-09-25T04:12:45.273Z,96002.84
2022-09-25T04:15:12.944Z,96010.38
2022-09-25T04:17:40.646Z,96003.28
2022-09-25T04:20:09.688Z,95999.31
2022-09-25T04:22:37.452Z,96006.81
2022-09-25T04:25:05.900Z,95999.84
2022-09-25T04:27:34.986Z,96001.28
2022-09-25T04:30:02.643Z,95996.00
2022-09-25T04:32:48.002Z,96007.00
2022-09-25T04:35:15.907Z,95998.44
2022-09-25T04:37:43.650Z,96005.88
2022-09-25T04:40:12.135Z,96011.44
2022-09-25T04:42:43.126Z,96021.03
2022-09-25T04:45:11.670Z,96005.75
2022-09-25T04:47:39.444Z,96011.75
2022-09-25T04:50:08.105Z,96008.63
2022-09-25T04:52:35.839Z,96005.16
2022-09-25T04:55:04.214Z,96008.56
2022-09-25T04:57:53.936Z,96009.69
2022-09-25T05:00:22.125Z,96011.25
2022-09-25T05:02:50.315Z,96007.50
2022-09-25T05:05:18.487Z,96014.91
2022-09-25T05:07:53.641Z,96016.41
2022-09-25T05:10:21.790Z,96020.56
2022-09-25T05:12:50.327Z,96021.72
2022-09-25T05:15:18.115Z,96023.91
2022-09-25T05:17:47.222Z,96026.09
2022-09-25T05:20:15.101Z,96030.13
2022-09-25T05:22:42.793Z,96030.44
2022-09-25T05:25:10.992Z,96013.72
2022-09-25T05:27:38.724Z,96024.97
2022-09-25T05:30:09.509Z,96025.75
2022-09-25T05:32:37.256Z,96030.63
2022-09-25T05:35:07.869Z,96030.97
2022-09-25T05:37:35.566Z,96037.72
2022-09-25T05:40:03.743Z,96033.66
2022-09-25T05:42:31.989Z,96041.63
2022-09-25T05:45:04.951Z,96033.84
2022-09-25T05:47:35.107Z,96038.34
2022-09-25T05:50:04.091Z,96039.03
2022-09-25T05:52:33.159Z,96042.25
2022-09-25T05:55:00.844Z,96024.09
2022-09-25T05:57:31.311Z,96042.69
2022-09-25T05:59:59.721Z,96041.59
2022-09-25T06:02:27.688Z,96041.81
2022-09-25T06:04:55.367Z,96040.75
2022-09-25T06:07:23.074Z,96031.53
2022-09-25T06:09:52.108Z,96043.38
2022-09-25T06:12:19.751Z,96047.94
2022-09-25T06:14:47.955Z,96044.38
2022-09-25T06:17:15.648Z,96041.59
2022-09-25T06:19:43.326Z,96050.16
2022-09-25T06:22:11.217Z,96052.59
2022-09-25T06:24:38.895Z,96048.25
2022-09-25T06:27:09.233Z,96050.47
2022-09-25T06:29:37.124Z,96047.72
2022-09-25T06:32:04.848Z,96054.22
2022-09-25T06:34:32.701Z,96049.03
2022-09-25T06:37:01.254Z,96044.03
2022-09-25T06:39:28.931Z,96047.25
2022-09-25T06:41:56.574Z,96046.25
2022-09-25T06:44:26.097Z,96049.97
2022-09-25T06:46:54.392Z,96047.66
2022-09-25T06:49:22.406Z,96046.13
2022-09-25T06:51:51.064Z,96056.38
2022-09-25T06:54:20.023Z,96054.44
2022-09-25T06:56:49.796Z,96054.00
2022-09-25T06:59:17.590Z,96051.84
2022-09-25T07:01:46.659Z,96052.25
2022-09-25T07:04:13.754Z,96053.44
2022-09-25T07:06:41.518Z,96041.72
2022-09-25T07:09:09.364Z,96054.69
2022-09-25T07:11:37.086Z,96046.66
2022-09-25T07:14:04.828Z,96056.69
2022-09-25T07:16:34.367Z,96053.81
2022-09-25T07:19:04.380Z,96060.22
2022-09-25T07:21:32.355Z,96057.09
2022-09-25T07:24:00.399Z,96057.13
2022-09-25T07:26:33.805Z,96050.16
2022-09-25T07:29:03.652Z,96059.41
2022-09-25T07:31:33.377Z,96056.19
2022-09-25T07:34:08.941Z,96044.75
2022-09-25T07:36:38.773Z,96051.88
2022-09-25T07:39:06.850Z,96057.88
2022-09-25T07:41:34.728Z,96060.31
2022-09-25T07:44:24.300Z,96063.75
2022-09-25T07:46:50.535Z,96058.78
2022-09-25T07:49:19.675Z,96063.88
2022-09-25T07:51:47.474Z,96060.09
2022-09-25T07:54:15.216Z,96061.34
2022-09-25T07:56:42.951Z,96063.53
2022-09-25T07:59:10.670Z,96058.41
2022-09-25T08:01:43.632Z,96062.25
2022-09-25T08:04:12.753Z,96063.63
2022-09-25T08:06:42.153Z,96065.22
2022-09-25T08:09:11.867Z,96062.00
2022-09-25T08:11:39.577Z,96060.41
2022-09-25T08:14:07.374Z,96062.09
2022-09-25T08:16:35.138Z,96066.16
2022-09-25T08:19:03.790Z,96066.00
2022-09-25T08:21:31.481Z,96063.03
2022-09-25T08:24:01.115Z,96062.53
2022-09-25T08:26:29.373Z,96066.59
2022-09-25T08:28:57.217Z,96069.56
2022-09-25T08:31:24.988Z,96071.94
2022-09-25T08:33:54.257Z,96071.38
2022-09-25T08:36:23.074Z,96076.50
2022-09-25T08:38:50.807Z,96075.34
2022-09-25T08:41:24.408Z,96079.56
2022-09-25T08:44:01.658Z,96081.75
2022-09-25T08:46:58.236Z,96079.94
2022-09-25T08:49:29.451Z,96093.50
2022-09-25T08:52:02.834Z,96083.09
2022-09-25T08:54:32.871Z,96083.22
2022-09-25T08:57:08.008Z,96076.44
2022-09-25T08:59:38.609Z,96082.28
2022-09-25T09:02:14.251Z,96065.38
2022-09-25T09:04:47.806Z,96075.38
2022-09-25T09:07:28.137Z,96071.91
2022-09-25T09:10:01.895Z,96062.78
2022-09-25T09:12:40.949Z,96070.94
2022-09-25T09:15:19.820Z,96069.81
2022-09-25T09:17:47.550Z,96070.41
2022-09-25T09:20:19.104Z,96070.59
2022-09-25T09:22:50.909Z,96073.66
2022-09-25T09:25:31.010Z,96071.03
2022-09-25T09:28:26.794Z,96071.41
2022-09-25T09:31:01.694Z,96075.72
2022-09-25T09:33:43.134Z,96066.88
2022-09-25T09:36:17.771Z,96070.00
2022-09-25T09:38:54.665Z,96066.59
2022-09-25T09:41:52.797Z,96060.66
2022-09-25T09:44:49.588Z,96067.09
2022-09-25T09:47:33.311Z,96057.97
2022-09-25T09:50:18.376Z,96071.44
2022-09-25T09:52:50.174Z,96066.09
2022-09-25T09:55:25.185Z,96060.66
2022-09-25T09:57:55.378Z,96058.59
2022-09-25T10:00:25.437Z,96064.00
2022-09-25T10:02:59.328Z,96065.06
2022-09-25T10:05:30.523Z,96068.38
2022-09-25T10:07:58.427Z,96067.88
2022-09-25T10:10:35.341Z,96064.78
2022-09-25T10:13:06.647Z,96066.31
2022-09-25T10:15:39.930Z,96059.78
2022-09-25T10:18:08.737Z,96057.16
2022-09-25T10:20:42.936Z,96063.88
2022-09-25T10:23:25.931Z,96052.06
2022-09-25T10:25:56.025Z,96050.88
2022-09-25T10:28:28.525Z,96050.09
2022-09-25T10:30:58.973Z,96046.31
2022-09-25T10:33:28.421Z,96044.47
2022-09-25T10:35:56.247Z,96040.44
2022-09-25T10:38:32.959Z,96035.06
2022-09-25T10:41:04.281Z,96046.38
2022-09-25T10:43:32.089Z,96043.91
2022-09-25T10:46:12.601Z,96046.34
2022-09-25T10:48:58.620Z,96047.34
2022-09-25T10:51:26.668Z,96047.19
2022-09-25T10:54:11.128Z,96034.06
2022-09-25T10:56:39.296Z,96046.50
2022-09-25T10:59:17.405Z,96039.84
2022-09-25T11:01:49.146Z,96052.66
2022-09-25T11:04:21.171Z,96050.41
2022-09-25T11:06:52.349Z,96048.06
2022-09-25T11:09:22.596Z,96051.56
2022-09-25T11:11:52.916Z,96048.81
2022-09-25T11:14:25.972Z,96048.38
2022-09-25T11:16:57.928Z,96052.72
2022-09-25T11:19:28.911Z,96063.03
2022-09-25T11:22:08.038Z,96054.94
2022-09-25T11:25:01.076Z,96047.09
2022-09-25T11:27:36.253Z,96041.78
2022-09-25T11:30:07.605Z,96045.28
2022-09-25T11:32:51.659Z,96032.63
2022-09-25T11:35:29.770Z,96039.09
2022-09-25T11:38:09.841Z,96041.25
2022-09-25T11:41:02.125Z,96038.28
2022-09-25T11:43:42.901Z,96035.88
2022-09-25T11:46:23.201Z,96037.22
2022-09-25T11:49:01.739Z,96036.69
2022-09-25T11:51:50.481Z,96034.28
2022-09-25T11:54:34.261Z,96039.63
2022-09-25T11:57:07.632Z,96039.63
2022-09-25T11:59:49.624Z,96030.22
2022-09-25T12:02:31.738Z,96037.22
2022-09-25T12:05:10.643Z,96039.09
2022-09-25T12:08:03.693Z,96038.56
2022-09-25T12:10:43.782Z,96041.00
2022-09-25T12:13:19.140Z,96028.06
2022-09-25T12:16:01.201Z,96029.13
2022-09-25T12:18:49.422Z,96024.28
2022-09-25T12:21:24.207Z,96024.84
2022-09-25T12:23:59.113Z,96020.00
2022-09-25T12:26:37.136Z,96031.00
2022-09-25T12:29:19.570Z,96025.06
2022-09-25T12:31:56.651Z,96022.13
2022-09-25T12:34:37.860Z,96028.56
2022-09-25T12:37:23.049Z,96005.91
2022-09-25T12:39:58.184Z,96011.53
2022-09-25T12:42:37.172Z,96029.47
2022-09-25T12:45:15.517Z,96013.69
2022-09-25T12:47:48.582Z,96014.19
2022-09-25T12:50:18.487Z,96010.31
2022-09-25T12:52:52.465Z,96011.94
2022-09-25T12:55:26.058Z,96000.34
2022-09-25T12:58:02.970Z,96017.06
2022-09-25T13:00:34.726Z,96013.38
2022-09-25T13:03:11.457Z,96013.78
2022-09-25T13:05:45.194Z,96003.84
2022-09-25T13:08:20.276Z,96005.47
2022-09-25T13:10:53.527Z,96009.78
2022-09-25T13:13:24.161Z,96009.75
2022-09-25T13:15:54.336Z,96015.13
2022-09-25T13:18:24.516Z,96005.19
2022-09-25T13:20:53.998Z,96010.03
2022-09-25T13:23:31.270Z,96014.63
2022-09-25T13:26:01.985Z,96010.31
2022-09-25T13:28:33.472Z,96017.81
2022-09-25T13:31:09.926Z,96017.84
2022-09-25T13:33:50.098Z,96023.19
2022-09-25T13:36:32.705Z,96019.72
2022-09-25T13:39:21.780Z,96011.06
2022-09-25T13:41:53.424Z,96019.16
2022-09-25T13:45:06.186Z,96005.44
2022-09-25T13:47:34.837Z,96020.28
2022-09-25T13:50:18.760Z,96010.28
2022-09-25T13:53:16.558Z,96015.66
2022-09-25T13:56:26.588Z,96022.00
2022-09-25T13:59:36.859Z,96017.09
2022-09-25T14:02:41.634Z,96020.09
2022-09-25T14:05:09.612Z,96015.53
2022-09-25T14:07:37.978Z,96008.75
2022-09-25T14:10:12.668Z,96019.22
2022-09-25T14:12:47.959Z,96000.94
2022-09-25T14:15:24.475Z,96012.19
2022-09-25T14:17:54.157Z,96011.94
2022-09-25T14:20:33.336Z,96004.41
2022-09-25T14:23:05.606Z,96011.38
2022-09-25T14:25:36.433Z,96002.97
2022-09-25T14:28:19.334Z,95996.56
2022-09-25T14:30:53.753Z,96004.63
2022-09-25T14:33:42.420Z,96004.56
2022-09-25T14:36:22.740Z,96001.88
2022-09-25T14:39:25.189Z,95971.69
2022-09-25T14:42:15.997Z,96002.03
2022-09-25T14:45:08.907Z,96012.53
2022-09-25T14:47:39.289Z,95994.66
2022-09-25T14:50:08.223Z,95999.00
2022-09-25T14:52:37.743Z,96007.84
2022-09-25T14:55:06.585Z,96013.75
2022-09-25T14:57:37.151Z,96008.38
2022-09-25T15:00:08.855Z,96006.03
2022-09-25T15:02:40.758Z,96006.81
2022-09-25T15:05:20.009Z,96010.63
2022-09-25T15:07:47.923Z,96009.00
2022-09-25T15:10:28.524Z,96003.34
2022-09-25T15:13:05.825Z,96009.28
2022-09-25T15:15:35.398Z,96009.53
2022-09-25T15:18:02.703Z,96009.72
2022-09-25T15:20:32.699Z,96013.06
2022-09-25T15:23:03.371Z,96009.53
2022-09-25T15:25:33.694Z,96009.91
2022-09-25T15:28:01.707Z,96013.81
2022-09-25T15:30:29.804Z,96016.19
2022-09-25T15:33:01.105Z,96015.19
2022-09-25T15:35:30.528Z,96015.50
2022-09-25T15:38:09.387Z,96016.31
2022-09-25T15:40:37.661Z,96020.47
2022-09-25T15:43:13.271Z,96016.78
2022-09-25T15:45:46.064Z,96017.06
2022-09-25T15:48:25.998Z,96022.13
2022-09-25T15:50:55.171Z,96019.44
2022-09-25T15:53:27.250Z,96015.91
2022-09-25T15:56:03.204Z,96013.63
2022-09-25T15:58:31.354Z,96014.00
2022-09-25T16:01:19.629Z,95994.78
2022-09-25T16:04:09.789Z,96010.63
2022-09-25T16:06:42.791Z,96009.31
2022-09-25T16:09:20.015Z,96007.91
2022-09-25T16:11:48.463Z,96009.78
2022-09-25T16:14:30.365Z,96012.69
2022-09-25T16:17:00.062Z,96009.97
2022-09-25T16:19:34.148Z,96010.28
2022-09-25T16:22:16.622Z,96015.38
2022-09-25T16:24:51.080Z,96012.44
2022-09-25T16:27:28.807Z,96010.81
2022-09-25T16:30:03.696Z,96021.31
2022-09-25T16:32:32.643Z,96028.59
2022-09-25T16:35:03.721Z,96022.66
2022-09-25T16:37:34.733Z,96026.06
2022-09-25T16:40:25.208Z,96028.72
2022-09-25T16:42:55.483Z,96026.91
2022-09-25T16:45:27.858Z,96013.16
2022-09-25T16:47:58.282Z,96020.16
2022-09-25T16:50:29.401Z,96023.16
2022-09-25T16:52:57.041Z,96021.88
2022-09-25T16:55:28.906Z,96020.22
2022-09-25T16:57:58.943Z,96018.31
2022-09-25T17:00:29.130Z,96024.09
2022-09-25T17:02:57.243Z,96025.41
2022-09-25T17:05:29.402Z,96029.66
2022-09-25T17:07:57.956Z,96034.50
2022-09-25T17:10:32.092Z,96030.47
2022-09-25T17:13:02.444Z,96039.88
2022-09-25T17:15:34.072Z,96041.34
2022-09-25T17:18:02.883Z,96052.63
2022-09-25T17:20:32.357Z,96040.78
2022-09-25T17:23:01.147Z,96052.53
2022-09-25T17:25:41.318Z,96049.31
2022-09-25T17:28:10.544Z,96055.47
2022-09-25T17:30:39.736Z,96050.44
2022-09-25T17:33:13.455Z,96059.09
2022-09-25T17:35:47.146Z,96050.50
2022-09-25T17:38:14.825Z,96060.22
2022-09-25T17:40:45.622Z,96055.34
2022-09-25T17:43:15.135Z,96057.19
2022-09-25T17:45:48.286Z,96062.03
2022-09-25T17:48:16.080Z,96067.38
2022-09-25T17:50:47.038Z,96059.59
2022-09-25T17:53:18.384Z,96071.97
2022-09-25T17:55:52.650Z,96073.56
2022-09-25T17:58:22.166Z,96083.94
2022-09-25T18:00:51.271Z,96068.50
2022-09-25T18:03:19.699Z,96076.75
2022-09-25T18:05:49.139Z,96089.34
2022-09-25T18:08:17.911Z,96088.72
2022-09-25T18:10:46.080Z,96085.78
2022-09-25T18:13:17.154Z,96086.72
2022-09-25T18:15:49.317Z,96085.91
2022-09-25T18:18:17.341Z,96079.53
2022-09-25T18:21:06.974Z,96079.72
2022-09-25T18:23:39.065Z,96094.25
2022-09-25T18:26:09.249Z,96085.91
2022-09-25T18:28:36.948Z,96097.31
2022-09-25T18:31:04.747Z,96095.19
2022-09-25T18:33:32.489Z,96097.81
2022-09-25T18:36:00.499Z,96098.34
2022-09-25T18:38:28.351Z,96096.97
2022-09-25T18:40:57.440Z,96096.75
2022-09-25T18:43:25.805Z,96100.75
2022-09-25T18:45:53.539Z,96099.13
2022-09-25T18:48:21.344Z,96094.16
2022-09-25T18:50:49.868Z,96108.94
2022-09-25T18:53:18.514Z,96110.53
2022-09-25T18:55:46.205Z,96109.47
2022-09-25T18:58:15.264Z,96115.97
2022-09-25T19:00:43.140Z,96118.88
2022-09-25T19:03:10.918Z,96125.06
2022-09-25T19:05:38.854Z,96130.72
2022-09-25T19:08:06.573Z,96125.13
2022-09-25T19:10:35.274Z,96133.53
2022-09-25T19:13:03.102Z,96132.72
2022-09-25T19:15:33.343Z,96132.88
2022-09-25T19:18:01.113Z,96129.75
2022-09-25T19:20:28.821Z,96136.56
2022-09-25T19:22:56.710Z,96115.69
2022-09-25T19:25:24.366Z,96142.28
2022-09-25T19:27:52.031Z,96142.69
2022-09-25T19:30:19.978Z,96134.00
2022-09-25T19:32:50.859Z,96141.78
2022-09-25T19:35:18.924Z,96141.78
2022-09-25T19:37:46.599Z,96140.34
2022-09-25T19:40:31.621Z,96130.59
2022-09-25T19:43:01.025Z,96122.25
2022-09-25T19:45:29.511Z,96121.09
2022-09-25T19:47:58.621Z,96121.63
2022-09-25T19:50:26.273Z,96123.81
2022-09-25T19:52:54.695Z,96130.59
2022-09-25T19:55:22.408Z,96137.91
2022-09-25T19:57:50.227Z,96137.84
2022-09-25T20:00:18.367Z,96139.88
2022-09-25T20:02:47.510Z,96137.59
2022-09-25T20:05:17.776Z,96141.03
2022-09-25T20:07:45.475Z,96138.56
2022-09-25T20:10:13.715Z,96133.22
2022-09-25T20:12:41.381Z,96128.34
2022-09-25T20:15:09.689Z,96142.63
2022-09-25T20:17:37.412Z,96143.94
2022-09-25T20:20:05.564Z,96126.56
2022-09-25T20:22:34.666Z,96133.56
2022-09-25T20:25:02.362Z,96140.69
2022-09-25T20:27:30.058Z,96147.66
2022-09-25T20:29:57.754Z,96134.50
2022-09-25T20:32:25.415Z,96138.56
2022-09-25T20:34:53.503Z,96126.84
2022-09-25T20:37:21.198Z,96129.44
2022-09-25T20:39:50.344Z,96131.22
2022-09-25T20:42:18.505Z,96143.22
2022-09-25T20:44:46.203Z,96137.13
2022-09-25T20:47:14.050Z,96142.69
2022-09-25T20:49:41.803Z,96137.44
2022-09-25T20:52:12.380Z,96143.03
2022-09-25T20:54:41.724Z,96138.75
2022-09-25T20:57:10.785Z,96147.72
2022-09-25T20:59:39.018Z,96146.69
2022-09-25T21:02:07.063Z,96141.91
2022-09-25T21:04:34.920Z,96147.25
2022-09-25T21:07:03.563Z,96146.84
2022-09-25T21:09:31.249Z,96144.50
2022-09-25T21:11:58.999Z,96144.28
2022-09-25T21:14:29.789Z,96136.38
2022-09-25T21:16:57.587Z,96146.50
2022-09-25T21:19:25.479Z,96134.84
2022-09-25T21:21:53.232Z,96146.44
2022-09-25T21:24:22.104Z,96139.03
2022-09-25T21:26:51.342Z,96130.84
2022-09-25T21:29:19.858Z,96141.16
2022-09-25T21:31:50.561Z,96149.91
2022-09-25T21:34:19.392Z,96145.69
2022-09-25T21:36:47.858Z,96142.59
2022-09-25T21:39:15.804Z,96144.56
2022-09-25T21:41:44.300Z,96151.63
2022-09-25T21:44:15.268Z,96135.97
2022-09-25T21:46:43.414Z,96141.09
2022-09-25T21:49:17.878Z,96142.81
2022-09-25T21:51:47.004Z,96142.31
2022-09-25T21:54:16.121Z,96147.97
2022-09-25T21:56:44.341Z,96150.91
2022-09-25T21:59:12.354Z,96145.22
2022-09-25T22:01:40.952Z,96151.22
2022-09-25T22:04:11.491Z,96150.19
2022-09-25T22:06:42.700Z,96150.41
2022-09-25T22:09:12.599Z,96161.13
2022-09-25T22:11:43.263Z,96154.78
2022-09-25T22:14:15.759Z,96154.63
2022-09-25T22:16:45.565Z,96152.84
2022-09-25T22:19:15.839Z,96153.81
2022-09-25T22:21:46.122Z,96114.28
2022-09-25T22:24:14.439Z,96154.16
2022-09-25T22:26:44.636Z,96154.16
2022-09-25T22:29:13.000Z,96153.91
2022-09-25T22:31:43.095Z,96151.72
2022-09-25T22:34:16.312Z,96140.63
2022-09-25T22:36:45.712Z,96155.47
2022-09-25T22:39:14.935Z,96161.44
2022-09-25T22:41:43.152Z,96148.97
2022-09-25T22:44:10.903Z,96148.28
2022-09-25T22:46:38.682Z,96143.84
2022-09-25T22:49:06.634Z,96141.72
2022-09-25T22:51:34.411Z,96143.09
2022-09-25T22:54:03.540Z,96136.97
2022-09-25T22:56:32.735Z,96145.47
2022-09-25T22:59:02.220Z,96144.88
2022-09-25T23:01:33.094Z,96142.47
2022-09-25T23:04:02.989Z,96139.53
2022-09-25T23:06:32.238Z,96144.59
2022-09-25T23:09:02.753Z,96138.25
2022-09-25T23:11:32.220Z,96147.19
2022-09-25T23:14:02.094Z,96133.72
2022-09-25T23:16:31.814Z,96145.47
2022-09-25T23:19:00.544Z,96117.81
2022-09-25T23:21:30.183Z,96126.88
2022-09-25T23:23:58.570Z,96128.53
2022-09-25T23:26:26.764Z,96122.59
2022-09-25T23:28:55.862Z,96126.47
2022-09-25T23:31:23.613Z,96120.97
2022-09-25T23:33:51.415Z,96118.38
2022-09-25T23:36:21.596Z,96108.91
2022-09-25T23:38:49.887Z,96118.00
2022-09-25T23:41:19.750Z,96111.50
2022-09-25T23:43:48.833Z,96108.84
2022-09-25T23:46:19.235Z,96112.13
2022-09-25T23:48:47.006Z,96105.97
2022-09-25T23:51:16.083Z,96107.06
2022-09-25T23:53:44.946Z,96097.31
2022-09-25T23:56:15.161Z,96104.66
2022-09-25T23:58:43.319Z,96102.41
